Aeroporto :
LOGIN :

Iscrizione | Disclaimer

   EN    FR    IT 

 










Sommario :    VFR   VFR Marginale   IFR   IFR Intensivo   IFR Molto Intensivo
Visibilità : 
Base nubi : 
>= 8 km
>= 3000ft
5 / 8 km
1000 / 3000 ft
1500m / 5 km
500 / 1000 ft
800 / 1500m
200 / 500 ft
< 800m
< 200 ft
Simboli :   Temporali  Nebbia  Neve Forte  Precipitazioni Forti  Vento > 20 kt
SIGMETs :   Varie  Temporali  Ghiacco  Turbolenza  Onda orograficha  Ceneri Vulcaniche






- Altitudine del aeroporto : 126 ft
- Codice IATA : TIA


LATI - Rinas Mother Teresa Arpt - Tirana

ULTIMO METAR :
  • 150456Z VRB02KT CAVOK 02/02 Q1015 NOSIG

METARs OBSOLETI :
  • 150420Z VRB01KT CAVOK 04/03 Q1015 NOSIG
  • 150350Z 09003KT 050V150 CAVOK 04/03 Q1014 NOSIG
  • 150320Z 20004KT 9999 MIFG NSC 04/03 Q1014 NOSIG
  • 150250Z 16003KT 9999 4400S MIFG BCFG NSC 04/04 Q1014 NOSIG
  • 150220Z 16003KT 9999 4000S MIFG BCFG NSC 04/04 Q1014 NOSIG

TAF TAF LATI
Valido dal 15 a 00 ore il 16 a 00 ore UTC


142300Z 1500/1524 VRB04KT CAVOK TX17/1512Z TN01/1505Z
TEMPO 1501/1506 3000 BCFG
TEMPO 1510/1517 16008KT



MetMap, La meteo Aeronautica in un colpo d'occhio ! - Copyright ORBIFLY Dicembre 2007 - Disclaimer

ORBIFLY MET'MAP TEAM :

Programmazione e sviluppo : Alexandra Zaïnal
Concezione : Baudouin d'Aumeries
Aiuto per la programmazione : Marc-Olivier Méhu
Supporto tecnico e logistico : Manuel Goepfert
Aiuto per la traduzione : Arnaldo La Scala

Contatto : metmap@orbifly.com




FONTI E CREDITI :

   NOAA